sensor_id;sensor_type;location;lat;lon;timestamp;temperature;humidity
2999;DHT22;1509;51.964;7.628;2023-02-28T00:00:51;1.50;99.90
2999;DHT22;1509;51.964;7.628;2023-02-28T00:03:17;1.40;99.90
2999;DHT22;1509;51.964;7.628;2023-02-28T00:05:43;1.80;99.90
2999;DHT22;1509;51.964;7.628;2023-02-28T00:08:09;1.40;99.90
2999;DHT22;1509;51.964;7.628;2023-02-28T00:10:43;1.30;99.90
2999;DHT22;1509;51.964;7.628;2023-02-28T00:13:12;1.30;99.90
2999;DHT22;1509;51.964;7.628;2023-02-28T00:15:38;1.30;99.90
2999;DHT22;1509;51.964;7.628;2023-02-28T00:18:04;1.30;99.90
2999;DHT22;1509;51.964;7.628;2023-02-28T00:20:29;1.30;99.90
2999;DHT22;1509;51.964;7.628;2023-02-28T00:22:56;1.30;99.90
2999;DHT22;1509;51.964;7.628;2023-02-28T00:25:24;1.30;99.90
2999;DHT22;1509;51.964;7.628;2023-02-28T00:27:50;1.20;99.90
2999;DHT22;1509;51.964;7.628;2023-02-28T00:30:18;1.20;99.90
2999;DHT22;1509;51.964;7.628;2023-02-28T00:32:44;1.20;99.90
2999;DHT22;1509;51.964;7.628;2023-02-28T00:35:49;1.20;99.90
2999;DHT22;1509;51.964;7.628;2023-02-28T00:38:17;1.20;99.90
2999;DHT22;1509;51.964;7.628;2023-02-28T00:40:43;1.20;99.90
2999;DHT22;1509;51.964;7.628;2023-02-28T00:43:08;1.20;99.90
2999;DHT22;1509;51.964;7.628;2023-02-28T00:45:34;1.20;99.90
2999;DHT22;1509;51.964;7.628;2023-02-28T00:48:00;1.20;99.90
2999;DHT22;1509;51.964;7.628;2023-02-28T00:50:25;1.20;99.90
2999;DHT22;1509;51.964;7.628;2023-02-28T00:52:51;1.10;99.90
2999;DHT22;1509;51.964;7.628;2023-02-28T00:55:16;1.10;99.90
2999;DHT22;1509;51.964;7.628;2023-02-28T00:57:43;1.10;99.90
2999;DHT22;1509;51.964;7.628;2023-02-28T01:00:10;1.00;99.90
2999;DHT22;1509;51.964;7.628;2023-02-28T01:02:36;1.00;99.90
2999;DHT22;1509;51.964;7.628;2023-02-28T01:08:08;0.90;99.90
2999;DHT22;1509;51.964;7.628;2023-02-28T01:10:33;0.90;99.90
2999;DHT22;1509;51.964;7.628;2023-02-28T01:12:59;0.90;99.90
2999;DHT22;1509;51.964;7.628;2023-02-28T01:15:25;0.90;99.90
2999;DHT22;1509;51.964;7.628;2023-02-28T01:17:50;1.00;99.90
2999;DHT22;1509;51.964;7.628;2023-02-28T01:20:16;1.00;99.90
2999;DHT22;1509;51.964;7.628;2023-02-28T01:22:41;0.90;99.90
2999;DHT22;1509;51.964;7.628;2023-02-28T01:25:07;0.80;99.90
2999;DHT22;1509;51.964;7.628;2023-02-28T01:27:33;0.80;99.90
2999;DHT22;1509;51.964;7.628;2023-02-28T01:29:59;0.80;99.90
2999;DHT22;1509;51.964;7.628;2023-02-28T01:32:24;0.80;99.90
2999;DHT22;1509;51.964;7.628;2023-02-28T01:34:50;0.80;99.90
2999;DHT22;1509;51.964;7.628;2023-02-28T01:37:15;0.80;99.90
2999;DHT22;1509;51.964;7.628;2023-02-28T01:39:41;0.70;99.90
2999;DHT22;1509;51.964;7.628;2023-02-28T01:42:09;0.70;99.90
2999;DHT22;1509;51.964;7.628;2023-02-28T01:47:35;0.70;99.90
2999;DHT22;1509;51.964;7.628;2023-02-28T01:50:06;0.70;99.90
2999;DHT22;1509;51.964;7.628;2023-02-28T01:52:33;0.70;99.90
2999;DHT22;1509;51.964;7.628;2023-02-28T01:55:00;0.70;99.90
2999;DHT22;1509;51.964;7.628;2023-02-28T01:57:40;0.70;99.90
2999;DHT22;1509;51.964;7.628;2023-02-28T02:00:16;0.70;99.90
2999;DHT22;1509;51.964;7.628;2023-02-28T02:02:45;0.60;99.90
2999;DHT22;1509;51.964;7.628;2023-02-28T02:05:18;0.60;99.90
2999;DHT22;1509;51.964;7.628;2023-02-28T02:07:46;0.70;99.90
2999;DHT22;1509;51.964;7.628;2023-02-28T02:10:19;0.50;99.90
2999;DHT22;1509;51.964;7.628;2023-02-28T02:13:11;0.50;99.90
2999;DHT22;1509;51.964;7.628;2023-02-28T02:16:01;0.50;99.90
2999;DHT22;1509;51.964;7.628;2023-02-28T02:18:52;0.30;99.90
2999;DHT22;1509;51.964;7.628;2023-02-28T02:32:40;0.30;99.90
2999;DHT22;1509;51.964;7.628;2023-02-28T02:38:52;0.30;99.90
2999;DHT22;1509;51.964;7.628;2023-02-28T02:41:23;0.30;99.90
2999;DHT22;1509;51.964;7.628;2023-02-28T02:46:41;0.20;99.90
2999;DHT22;1509;51.964;7.628;2023-02-28T02:49:13;0.20;99.90
2999;DHT22;1509;51.964;7.628;2023-02-28T02:51:41;0.10;99.90
2999;DHT22;1509;51.964;7.628;2023-02-28T02:54:29;0.10;99.90
2999;DHT22;1509;51.964;7.628;2023-02-28T02:57:00;0.10;99.90
2999;DHT22;1509;51.964;7.628;2023-02-28T02:59:28;0.10;99.90
2999;DHT22;1509;51.964;7.628;2023-02-28T03:01:57;0.10;99.90
2999;DHT22;1509;51.964;7.628;2023-02-28T03:04:27;0.10;99.90
2999;DHT22;1509;51.964;7.628;2023-02-28T03:06:54;0.00;99.90
2999;DHT22;1509;51.964;7.628;2023-02-28T03:09:24;0.00;99.90
2999;DHT22;1509;51.964;7.628;2023-02-28T03:11:54;0.00;99.90
2999;DHT22;1509;51.964;7.628;2023-02-28T03:20:01;-0.10;99.90
2999;DHT22;1509;51.964;7.628;2023-02-28T03:25:27;-0.20;99.90
2999;DHT22;1509;51.964;7.628;2023-02-28T03:28:08;-0.20;99.90
2999;DHT22;1509;51.964;7.628;2023-02-28T03:30:47;-0.20;99.90
2999;DHT22;1509;51.964;7.628;2023-02-28T03:33:23;-0.20;99.90
2999;DHT22;1509;51.964;7.628;2023-02-28T03:36:11;-0.20;99.90
2999;DHT22;1509;51.964;7.628;2023-02-28T03:38:59;-0.30;99.90
2999;DHT22;1509;51.964;7.628;2023-02-28T03:41:56;-0.30;99.90
2999;DHT22;1509;51.964;7.628;2023-02-28T03:44:29;-0.30;99.90
2999;DHT22;1509;51.964;7.628;2023-02-28T03:47:02;-0.30;99.90
2999;DHT22;1509;51.964;7.628;2023-02-28T03:49:41;-0.30;99.90
2999;DHT22;1509;51.964;7.628;2023-02-28T03:52:09;-0.40;99.90
2999;DHT22;1509;51.964;7.628;2023-02-28T03:54:41;-0.40;99.90
2999;DHT22;1509;51.964;7.628;2023-02-28T03:59:50;-0.40;99.90
2999;DHT22;1509;51.964;7.628;2023-02-28T04:02:18;-0.40;99.90
2999;DHT22;1509;51.964;7.628;2023-02-28T04:04:44;-0.40;99.90
2999;DHT22;1509;51.964;7.628;2023-02-28T04:07:11;-0.40;99.90
2999;DHT22;1509;51.964;7.628;2023-02-28T04:09:37;-0.40;99.90
2999;DHT22;1509;51.964;7.628;2023-02-28T04:12:03;-0.50;99.90
2999;DHT22;1509;51.964;7.628;2023-02-28T04:14:28;-0.50;99.90
2999;DHT22;1509;51.964;7.628;2023-02-28T04:16:54;-0.50;99.90
2999;DHT22;1509;51.964;7.628;2023-02-28T04:19:20;-0.50;99.90
2999;DHT22;1509;51.964;7.628;2023-02-28T04:21:53;-0.50;99.90
2999;DHT22;1509;51.964;7.628;2023-02-28T04:24:29;-0.60;99.90
2999;DHT22;1509;51.964;7.628;2023-02-28T04:26:56;-0.60;99.90
2999;DHT22;1509;51.964;7.628;2023-02-28T04:29:30;-0.60;99.90
2999;DHT22;1509;51.964;7.628;2023-02-28T04:31:56;-0.60;99.90
2999;DHT22;1509;51.964;7.628;2023-02-28T04:34:26;-0.60;99.90
2999;DHT22;1509;51.964;7.628;2023-02-28T04:36:52;-0.60;99.90
2999;DHT22;1509;51.964;7.628;2023-02-28T04:39:20;-0.70;99.90
2999;DHT22;1509;51.964;7.628;2023-02-28T04:41:46;-0.70;99.90
2999;DHT22;1509;51.964;7.628;2023-02-28T04:44:13;-0.80;99.90
2999;DHT22;1509;51.964;7.628;2023-02-28T04:46:38;-0.70;99.90
2999;DHT22;1509;51.964;7.628;2023-02-28T04:49:04;-0.80;99.90
2999;DHT22;1509;51.964;7.628;2023-02-28T04:51:30;-0.80;99.90
2999;DHT22;1509;51.964;7.628;2023-02-28T04:53:55;-0.80;99.90
2999;DHT22;1509;51.964;7.628;2023-02-28T04:56:21;-0.80;99.90
2999;DHT22;1509;51.964;7.628;2023-02-28T04:58:47;-1.00;99.90
2999;DHT22;1509;51.964;7.628;2023-02-28T05:01:24;-0.80;99.90
2999;DHT22;1509;51.964;7.628;2023-02-28T05:03:52;-0.80;99.90
2999;DHT22;1509;51.964;7.628;2023-02-28T05:06:18;-0.80;99.90
2999;DHT22;1509;51.964;7.628;2023-02-28T05:08:44;-0.90;99.90
2999;DHT22;1509;51.964;7.628;2023-02-28T05:11:16;-0.90;99.90
2999;DHT22;1509;51.964;7.628;2023-02-28T05:13:42;-0.90;99.90
2999;DHT22;1509;51.964;7.628;2023-02-28T05:16:08;-0.90;99.90
2999;DHT22;1509;51.964;7.628;2023-02-28T05:18:34;-0.90;99.90
2999;DHT22;1509;51.964;7.628;2023-02-28T05:21:00;-0.90;99.90
2999;DHT22;1509;51.964;7.628;2023-02-28T05:23:28;-0.90;99.90
2999;DHT22;1509;51.964;7.628;2023-02-28T05:25:54;-0.90;99.90
2999;DHT22;1509;51.964;7.628;2023-02-28T05:28:20;-0.90;99.90
2999;DHT22;1509;51.964;7.628;2023-02-28T05:30:46;-0.90;99.90
2999;DHT22;1509;51.964;7.628;2023-02-28T05:33:13;-0.90;99.90
2999;DHT22;1509;51.964;7.628;2023-02-28T05:35:41;-0.90;99.90
2999;DHT22;1509;51.964;7.628;2023-02-28T05:38:08;-0.90;99.90
2999;DHT22;1509;51.964;7.628;2023-02-28T05:40:34;-0.90;99.90
2999;DHT22;1509;51.964;7.628;2023-02-28T05:43:00;-0.90;99.90
2999;DHT22;1509;51.964;7.628;2023-02-28T05:45:26;-0.90;99.90
2999;DHT22;1509;51.964;7.628;2023-02-28T05:47:58;-0.80;99.90
2999;DHT22;1509;51.964;7.628;2023-02-28T05:50:23;-0.80;99.90
2999;DHT22;1509;51.964;7.628;2023-02-28T05:52:50;-0.90;99.90
2999;DHT22;1509;51.964;7.628;2023-02-28T05:55:16;-0.90;99.90
2999;DHT22;1509;51.964;7.628;2023-02-28T05:57:42;-0.90;99.90
2999;DHT22;1509;51.964;7.628;2023-02-28T06:00:08;-0.90;99.90
2999;DHT22;1509;51.964;7.628;2023-02-28T06:02:34;-0.90;99.90
2999;DHT22;1509;51.964;7.628;2023-02-28T06:05:00;-0.90;99.90
2999;DHT22;1509;51.964;7.628;2023-02-28T06:07:25;-0.90;99.90
2999;DHT22;1509;51.964;7.628;2023-02-28T06:09:51;-0.90;99.90
2999;DHT22;1509;51.964;7.628;2023-02-28T06:12:17;-0.90;99.90
2999;DHT22;1509;51.964;7.628;2023-02-28T06:14:43;-0.90;99.90
2999;DHT22;1509;51.964;7.628;2023-02-28T06:17:09;-0.90;99.90
2999;DHT22;1509;51.964;7.628;2023-02-28T06:19:37;-1.00;99.90
2999;DHT22;1509;51.964;7.628;2023-02-28T06:22:04;-1.00;99.90
2999;DHT22;1509;51.964;7.628;2023-02-28T06:24:30;-1.00;99.90
2999;DHT22;1509;51.964;7.628;2023-02-28T06:26:56;-1.00;99.90
2999;DHT22;1509;51.964;7.628;2023-02-28T06:29:24;-1.00;99.90
2999;DHT22;1509;51.964;7.628;2023-02-28T06:31:50;-0.90;99.90
2999;DHT22;1509;51.964;7.628;2023-02-28T06:34:16;-0.90;99.90
2999;DHT22;1509;51.964;7.628;2023-02-28T06:36:42;-0.90;99.90
2999;DHT22;1509;51.964;7.628;2023-02-28T06:39:08;-1.00;99.90
2999;DHT22;1509;51.964;7.628;2023-02-28T06:41:35;-0.90;99.90
2999;DHT22;1509;51.964;7.628;2023-02-28T06:44:09;-0.90;99.90
2999;DHT22;1509;51.964;7.628;2023-02-28T06:46:36;-0.90;99.90
2999;DHT22;1509;51.964;7.628;2023-02-28T06:49:03;-0.90;99.90
2999;DHT22;1509;51.964;7.628;2023-02-28T06:51:34;-1.00;99.90
2999;DHT22;1509;51.964;7.628;2023-02-28T06:54:00;-1.00;99.90
2999;DHT22;1509;51.964;7.628;2023-02-28T06:56:26;-0.90;99.90
2999;DHT22;1509;51.964;7.628;2023-02-28T06:58:52;-0.90;99.90
2999;DHT22;1509;51.964;7.628;2023-02-28T07:01:23;-0.90;99.90
2999;DHT22;1509;51.964;7.628;2023-02-28T07:03:50;-0.80;99.90
2999;DHT22;1509;51.964;7.628;2023-02-28T07:06:18;-0.80;99.90
2999;DHT22;1509;51.964;7.628;2023-02-28T07:08:44;-0.80;99.90
2999;DHT22;1509;51.964;7.628;2023-02-28T07:11:10;-0.70;99.90
2999;DHT22;1509;51.964;7.628;2023-02-28T07:13:36;-0.70;99.90
2999;DHT22;1509;51.964;7.628;2023-02-28T07:16:06;-0.70;99.90
2999;DHT22;1509;51.964;7.628;2023-02-28T07:18:32;-0.70;99.90
2999;DHT22;1509;51.964;7.628;2023-02-28T07:21:02;-0.70;99.90
2999;DHT22;1509;51.964;7.628;2023-02-28T07:23:28;-0.60;99.90
2999;DHT22;1509;51.964;7.628;2023-02-28T07:25:53;-0.50;99.90
2999;DHT22;1509;51.964;7.628;2023-02-28T07:28:19;-0.50;99.90
2999;DHT22;1509;51.964;7.628;2023-02-28T07:30:45;-0.50;99.90
2999;DHT22;1509;51.964;7.628;2023-02-28T07:33:10;-0.40;99.90
2999;DHT22;1509;51.964;7.628;2023-02-28T07:35:36;-0.40;99.90
2999;DHT22;1509;51.964;7.628;2023-02-28T07:38:04;-0.30;99.90
2999;DHT22;1509;51.964;7.628;2023-02-28T07:40:30;-0.30;99.90
2999;DHT22;1509;51.964;7.628;2023-02-28T07:42:56;-0.20;99.90
2999;DHT22;1509;51.964;7.628;2023-02-28T07:45:24;-0.20;99.90
2999;DHT22;1509;51.964;7.628;2023-02-28T07:47:49;-0.10;99.90
2999;DHT22;1509;51.964;7.628;2023-02-28T07:50:15;0.00;99.90
2999;DHT22;1509;51.964;7.628;2023-02-28T07:52:41;0.00;99.90
2999;DHT22;1509;51.964;7.628;2023-02-28T07:55:08;0.10;99.90
2999;DHT22;1509;51.964;7.628;2023-02-28T07:57:34;0.20;99.90
2999;DHT22;1509;51.964;7.628;2023-02-28T08:00:00;0.30;99.90
2999;DHT22;1509;51.964;7.628;2023-02-28T08:02:26;0.50;99.90
2999;DHT22;1509;51.964;7.628;2023-02-28T08:04:52;0.40;99.90
2999;DHT22;1509;51.964;7.628;2023-02-28T08:07:18;0.60;99.90
2999;DHT22;1509;51.964;7.628;2023-02-28T08:09:44;0.80;99.90
2999;DHT22;1509;51.964;7.628;2023-02-28T08:12:11;1.20;99.90
2999;DHT22;1509;51.964;7.628;2023-02-28T08:14:36;1.90;99.90
2999;DHT22;1509;51.964;7.628;2023-02-28T08:17:03;3.20;99.90
2999;DHT22;1509;51.964;7.628;2023-02-28T08:19:29;5.10;99.90
2999;DHT22;1509;51.964;7.628;2023-02-28T08:21:55;6.90;99.90
2999;DHT22;1509;51.964;7.628;2023-02-28T08:24:21;8.40;99.90
2999;DHT22;1509;51.964;7.628;2023-02-28T08:26:47;9.30;99.90
2999;DHT22;1509;51.964;7.628;2023-02-28T08:29:12;10.50;99.90
2999;DHT22;1509;51.964;7.628;2023-02-28T08:31:38;11.70;99.90
2999;DHT22;1509;51.964;7.628;2023-02-28T08:34:12;12.50;99.90
2999;DHT22;1509;51.964;7.628;2023-02-28T08:36:38;14.40;99.90
2999;DHT22;1509;51.964;7.628;2023-02-28T08:39:05;15.60;99.90
2999;DHT22;1509;51.964;7.628;2023-02-28T08:41:30;16.70;99.90
2999;DHT22;1509;51.964;7.628;2023-02-28T08:43:56;17.40;99.90
2999;DHT22;1509;51.964;7.628;2023-02-28T08:46:22;18.10;99.90
2999;DHT22;1509;51.964;7.628;2023-02-28T08:48:52;18.50;99.90
2999;DHT22;1509;51.964;7.628;2023-02-28T08:51:19;18.50;98.70
2999;DHT22;1509;51.964;7.628;2023-02-28T08:53:52;18.10;96.20
2999;DHT22;1509;51.964;7.628;2023-02-28T08:56:18;17.10;96.40
2999;DHT22;1509;51.964;7.628;2023-02-28T08:58:45;16.70;96.00
2999;DHT22;1509;51.964;7.628;2023-02-28T09:03:44;17.30;95.10
2999;DHT22;1509;51.964;7.628;2023-02-28T09:06:11;17.10;93.40
2999;DHT22;1509;51.964;7.628;2023-02-28T09:08:40;17.50;94.00
2999;DHT22;1509;51.964;7.628;2023-02-28T09:11:06;17.80;93.10
2999;DHT22;1509;51.964;7.628;2023-02-28T09:13:39;18.80;93.80
2999;DHT22;1509;51.964;7.628;2023-02-28T09:16:06;18.60;92.30
2999;DHT22;1509;51.964;7.628;2023-02-28T09:18:34;18.90;92.20
2999;DHT22;1509;51.964;7.628;2023-02-28T09:21:06;18.50;88.00
2999;DHT22;1509;51.964;7.628;2023-02-28T09:23:32;17.50;87.60
2999;DHT22;1509;51.964;7.628;2023-02-28T09:25:58;17.40;86.90
2999;DHT22;1509;51.964;7.628;2023-02-28T09:28:23;17.10;90.00
2999;DHT22;1509;51.964;7.628;2023-02-28T09:30:52;17.00;87.60
2999;DHT22;1509;51.964;7.628;2023-02-28T09:33:22;17.10;84.80
2999;DHT22;1509;51.964;7.628;2023-02-28T09:35:49;16.50;82.50
2999;DHT22;1509;51.964;7.628;2023-02-28T09:38:15;16.30;83.20
2999;DHT22;1509;51.964;7.628;2023-02-28T09:40:52;16.20;82.10
2999;DHT22;1509;51.964;7.628;2023-02-28T09:43:23;16.30;83.40
2999;DHT22;1509;51.964;7.628;2023-02-28T09:48:33;15.40;80.00
2999;DHT22;1509;51.964;7.628;2023-02-28T09:51:09;15.40;81.60
2999;DHT22;1509;51.964;7.628;2023-02-28T09:53:38;16.20;83.30
2999;DHT22;1509;51.964;7.628;2023-02-28T09:56:11;16.90;82.30
2999;DHT22;1509;51.964;7.628;2023-02-28T09:59:02;17.80;80.90
2999;DHT22;1509;51.964;7.628;2023-02-28T10:06:56;16.20;75.10
2999;DHT22;1509;51.964;7.628;2023-02-28T10:09:29;16.90;77.30
2999;DHT22;1509;51.964;7.628;2023-02-28T10:12:00;15.60;74.90
2999;DHT22;1509;51.964;7.628;2023-02-28T10:14:29;15.80;76.60
2999;DHT22;1509;51.964;7.628;2023-02-28T10:16:59;15.60;75.30
2999;DHT22;1509;51.964;7.628;2023-02-28T10:19:38;15.20;75.80
2999;DHT22;1509;51.964;7.628;2023-02-28T10:22:14;15.10;78.70
2999;DHT22;1509;51.964;7.628;2023-02-28T10:24:46;15.90;77.10
2999;DHT22;1509;51.964;7.628;2023-02-28T10:29:46;15.20;76.90
2999;DHT22;1509;51.964;7.628;2023-02-28T10:32:17;15.10;76.50
2999;DHT22;1509;51.964;7.628;2023-02-28T10:34:43;15.40;77.00
2999;DHT22;1509;51.964;7.628;2023-02-28T10:37:10;15.50;77.50
2999;DHT22;1509;51.964;7.628;2023-02-28T10:39:46;15.30;76.90
2999;DHT22;1509;51.964;7.628;2023-02-28T10:42:22;15.60;76.10
2999;DHT22;1509;51.964;7.628;2023-02-28T10:45:05;15.90;75.50
2999;DHT22;1509;51.964;7.628;2023-02-28T10:47:34;15.80;79.20
2999;DHT22;1509;51.964;7.628;2023-02-28T10:50:02;15.40;74.20
2999;DHT22;1509;51.964;7.628;2023-02-28T10:52:37;15.00;73.70
2999;DHT22;1509;51.964;7.628;2023-02-28T10:57:46;14.10;75.30
2999;DHT22;1509;51.964;7.628;2023-02-28T11:00:21;15.00;76.60
2999;DHT22;1509;51.964;7.628;2023-02-28T11:02:47;14.50;76.50
2999;DHT22;1509;51.964;7.628;2023-02-28T11:05:33;15.10;76.70
2999;DHT22;1509;51.964;7.628;2023-02-28T11:10:31;14.80;74.40
2999;DHT22;1509;51.964;7.628;2023-02-28T11:13:00;14.30;78.90
2999;DHT22;1509;51.964;7.628;2023-02-28T11:15:32;12.90;75.90
2999;DHT22;1509;51.964;7.628;2023-02-28T11:20:48;13.10;81.90
2999;DHT22;1509;51.964;7.628;2023-02-28T11:23:16;13.30;78.30
2999;DHT22;1509;51.964;7.628;2023-02-28T11:25:50;13.60;78.90
2999;DHT22;1509;51.964;7.628;2023-02-28T11:33:54;14.50;77.60
2999;DHT22;1509;51.964;7.628;2023-02-28T11:36:29;15.00;76.40
2999;DHT22;1509;51.964;7.628;2023-02-28T11:39:00;14.80;76.90
2999;DHT22;1509;51.964;7.628;2023-02-28T11:50:03;16.50;78.30
2999;DHT22;1509;51.964;7.628;2023-02-28T11:52:52;16.10;76.60
2999;DHT22;1509;51.964;7.628;2023-02-28T11:55:31;16.10;76.90
2999;DHT22;1509;51.964;7.628;2023-02-28T12:06:28;14.50;77.50
2999;DHT22;1509;51.964;7.628;2023-02-28T12:09:20;14.20;79.30
2999;DHT22;1509;51.964;7.628;2023-02-28T12:11:57;14.90;79.90
2999;DHT22;1509;51.964;7.628;2023-02-28T12:14:46;15.60;79.70
2999;DHT22;1509;51.964;7.628;2023-02-28T12:17:56;15.60;78.80
2999;DHT22;1509;51.964;7.628;2023-02-28T12:20:37;15.80;82.80
2999;DHT22;1509;51.964;7.628;2023-02-28T12:28:52;15.70;79.70
2999;DHT22;1509;51.964;7.628;2023-02-28T12:31:24;15.80;79.70
2999;DHT22;1509;51.964;7.628;2023-02-28T12:33:56;14.90;79.40
2999;DHT22;1509;51.964;7.628;2023-02-28T12:36:22;15.40;81.10
2999;DHT22;1509;51.964;7.628;2023-02-28T12:38:55;14.50;80.40
2999;DHT22;1509;51.964;7.628;2023-02-28T12:41:40;14.90;81.40
2999;DHT22;1509;51.964;7.628;2023-02-28T12:44:11;14.60;81.00
2999;DHT22;1509;51.964;7.628;2023-02-28T12:46:43;14.20;81.40
2999;DHT22;1509;51.964;7.628;2023-02-28T12:49:31;14.50;81.80
2999;DHT22;1509;51.964;7.628;2023-02-28T12:52:00;14.70;81.70
2999;DHT22;1509;51.964;7.628;2023-02-28T12:57:06;14.10;82.40
2999;DHT22;1509;51.964;7.628;2023-02-28T12:59:49;14.40;81.00
2999;DHT22;1509;51.964;7.628;2023-02-28T13:10:05;14.40;83.00
2999;DHT22;1509;51.964;7.628;2023-02-28T13:12:33;14.90;83.50
2999;DHT22;1509;51.964;7.628;2023-02-28T13:15:12;15.60;83.90
2999;DHT22;1509;51.964;7.628;2023-02-28T13:17:42;15.60;82.50
2999;DHT22;1509;51.964;7.628;2023-02-28T13:20:25;15.20;83.40
2999;DHT22;1509;51.964;7.628;2023-02-28T13:22:53;15.10;82.50
2999;DHT22;1509;51.964;7.628;2023-02-28T13:27:49;15.40;83.80
2999;DHT22;1509;51.964;7.628;2023-02-28T13:33:29;15.00;83.70
2999;DHT22;1509;51.964;7.628;2023-02-28T13:38:49;14.50;82.50
2999;DHT22;1509;51.964;7.628;2023-02-28T13:46:38;14.40;84.90
2999;DHT22;1509;51.964;7.628;2023-02-28T13:49:27;14.60;85.90
2999;DHT22;1509;51.964;7.628;2023-02-28T14:06:31;13.10;84.40
2999;DHT22;1509;51.964;7.628;2023-02-28T14:09:06;12.70;85.90
2999;DHT22;1509;51.964;7.628;2023-02-28T14:11:42;13.30;86.70
2999;DHT22;1509;51.964;7.628;2023-02-28T14:14:09;12.70;85.70
2999;DHT22;1509;51.964;7.628;2023-02-28T14:16:55;12.70;86.20
2999;DHT22;1509;51.964;7.628;2023-02-28T14:19:29;12.40;86.50
2999;DHT22;1509;51.964;7.628;2023-02-28T14:24:34;12.40;86.30
2999;DHT22;1509;51.964;7.628;2023-02-28T14:27:40;12.40;87.30
2999;DHT22;1509;51.964;7.628;2023-02-28T14:30:40;11.90;86.60
2999;DHT22;1509;51.964;7.628;2023-02-28T14:36:24;11.50;88.30
2999;DHT22;1509;51.964;7.628;2023-02-28T14:38:55;11.60;89.90
2999;DHT22;1509;51.964;7.628;2023-02-28T14:41:29;11.10;88.10
2999;DHT22;1509;51.964;7.628;2023-02-28T14:43:58;10.70;89.10
2999;DHT22;1509;51.964;7.628;2023-02-28T14:46:35;10.20;89.60
2999;DHT22;1509;51.964;7.628;2023-02-28T14:49:07;9.50;91.00
2999;DHT22;1509;51.964;7.628;2023-02-28T14:51:38;9.20;92.50
2999;DHT22;1509;51.964;7.628;2023-02-28T14:54:04;9.00;92.00
2999;DHT22;1509;51.964;7.628;2023-02-28T14:56:39;8.80;92.50
2999;DHT22;1509;51.964;7.628;2023-02-28T14:59:20;8.70;93.60
2999;DHT22;1509;51.964;7.628;2023-02-28T15:01:48;8.70;93.50
2999;DHT22;1509;51.964;7.628;2023-02-28T15:04:25;8.50;93.70
2999;DHT22;1509;51.964;7.628;2023-02-28T15:07:12;8.50;94.50
2999;DHT22;1509;51.964;7.628;2023-02-28T15:09:38;8.30;94.00
2999;DHT22;1509;51.964;7.628;2023-02-28T15:12:07;8.30;95.00
2999;DHT22;1509;51.964;7.628;2023-02-28T15:14:34;8.20;94.90
2999;DHT22;1509;51.964;7.628;2023-02-28T15:17:08;8.20;95.40
2999;DHT22;1509;51.964;7.628;2023-02-28T15:19:40;8.10;95.10
2999;DHT22;1509;51.964;7.628;2023-02-28T15:22:16;8.10;95.30
2999;DHT22;1509;51.964;7.628;2023-02-28T15:24:49;7.90;94.80
2999;DHT22;1509;51.964;7.628;2023-02-28T15:27:16;7.70;94.80
2999;DHT22;1509;51.964;7.628;2023-02-28T15:29:48;7.90;95.10
2999;DHT22;1509;51.964;7.628;2023-02-28T15:32:45;7.60;96.70
2999;DHT22;1509;51.964;7.628;2023-02-28T15:35:29;7.60;95.50
2999;DHT22;1509;51.964;7.628;2023-02-28T15:38:00;7.70;95.40
2999;DHT22;1509;51.964;7.628;2023-02-28T15:40:31;7.90;96.00
2999;DHT22;1509;51.964;7.628;2023-02-28T15:43:18;7.70;96.10
2999;DHT22;1509;51.964;7.628;2023-02-28T15:48:52;7.70;97.00
2999;DHT22;1509;51.964;7.628;2023-02-28T15:51:20;7.50;96.20
2999;DHT22;1509;51.964;7.628;2023-02-28T15:53:51;7.50;96.70
2999;DHT22;1509;51.964;7.628;2023-02-28T15:56:28;7.50;96.60
2999;DHT22;1509;51.964;7.628;2023-02-28T15:58:59;7.50;96.60
2999;DHT22;1509;51.964;7.628;2023-02-28T16:01:35;7.30;96.70
2999;DHT22;1509;51.964;7.628;2023-02-28T16:04:21;7.00;96.20
2999;DHT22;1509;51.964;7.628;2023-02-28T16:09:23;6.90;97.20
2999;DHT22;1509;51.964;7.628;2023-02-28T16:11:51;6.90;97.60
2999;DHT22;1509;51.964;7.628;2023-02-28T16:14:26;6.90;97.90
2999;DHT22;1509;51.964;7.628;2023-02-28T16:17:02;6.90;97.50
2999;DHT22;1509;51.964;7.628;2023-02-28T16:19:28;7.10;97.90
2999;DHT22;1509;51.964;7.628;2023-02-28T16:21:54;6.90;98.30
2999;DHT22;1509;51.964;7.628;2023-02-28T16:24:19;6.90;97.70
2999;DHT22;1509;51.964;7.628;2023-02-28T16:26:48;6.70;97.60
2999;DHT22;1509;51.964;7.628;2023-02-28T16:29:27;6.70;97.80
2999;DHT22;1509;51.964;7.628;2023-02-28T16:31:54;6.70;98.20
2999;DHT22;1509;51.964;7.628;2023-02-28T16:34:20;6.60;97.80
2999;DHT22;1509;51.964;7.628;2023-02-28T16:36:47;6.50;98.10
2999;DHT22;1509;51.964;7.628;2023-02-28T16:39:13;6.50;98.30
2999;DHT22;1509;51.964;7.628;2023-02-28T16:41:42;6.50;98.70
2999;DHT22;1509;51.964;7.628;2023-02-28T16:44:26;6.60;98.80
2999;DHT22;1509;51.964;7.628;2023-02-28T16:46:52;6.50;98.90
2999;DHT22;1509;51.964;7.628;2023-02-28T16:49:18;6.50;99.00
2999;DHT22;1509;51.964;7.628;2023-02-28T16:51:44;6.40;99.10
2999;DHT22;1509;51.964;7.628;2023-02-28T16:54:09;6.40;99.50
2999;DHT22;1509;51.964;7.628;2023-02-28T16:56:35;6.40;99.60
2999;DHT22;1509;51.964;7.628;2023-02-28T16:59:02;6.30;99.70
2999;DHT22;1509;51.964;7.628;2023-02-28T17:01:31;6.40;99.90
2999;DHT22;1509;51.964;7.628;2023-02-28T17:03:57;6.30;99.90
2999;DHT22;1509;51.964;7.628;2023-02-28T17:06:25;6.10;99.90
2999;DHT22;1509;51.964;7.628;2023-02-28T17:08:53;6.40;99.90
2999;DHT22;1509;51.964;7.628;2023-02-28T17:11:19;6.10;99.90
2999;DHT22;1509;51.964;7.628;2023-02-28T17:13:45;6.00;99.90
2999;DHT22;1509;51.964;7.628;2023-02-28T17:18:44;5.90;99.90
2999;DHT22;1509;51.964;7.628;2023-02-28T17:21:14;5.80;99.90
2999;DHT22;1509;51.964;7.628;2023-02-28T17:23:40;5.80;99.90
2999;DHT22;1509;51.964;7.628;2023-02-28T17:26:06;5.90;99.90
2999;DHT22;1509;51.964;7.628;2023-02-28T17:28:32;5.70;99.90
2999;DHT22;1509;51.964;7.628;2023-02-28T17:30:57;5.60;99.90
2999;DHT22;1509;51.964;7.628;2023-02-28T17:33:23;5.60;99.90
2999;DHT22;1509;51.964;7.628;2023-02-28T17:35:49;5.60;99.90
2999;DHT22;1509;51.964;7.628;2023-02-28T17:38:17;5.50;99.90
2999;DHT22;1509;51.964;7.628;2023-02-28T17:40:43;5.50;99.90
2999;DHT22;1509;51.964;7.628;2023-02-28T17:43:10;5.40;99.90
2999;DHT22;1509;51.964;7.628;2023-02-28T17:45:39;5.40;99.90
2999;DHT22;1509;51.964;7.628;2023-02-28T17:48:04;5.50;99.90
2999;DHT22;1509;51.964;7.628;2023-02-28T17:50:30;5.40;99.90
2999;DHT22;1509;51.964;7.628;2023-02-28T17:52:57;5.30;99.90
2999;DHT22;1509;51.964;7.628;2023-02-28T17:55:23;5.30;99.90
2999;DHT22;1509;51.964;7.628;2023-02-28T17:57:49;5.30;99.90
2999;DHT22;1509;51.964;7.628;2023-02-28T18:00:16;5.20;99.90
2999;DHT22;1509;51.964;7.628;2023-02-28T18:02:43;5.20;99.90
2999;DHT22;1509;51.964;7.628;2023-02-28T18:05:09;5.00;99.90
2999;DHT22;1509;51.964;7.628;2023-02-28T18:07:40;5.20;99.90
2999;DHT22;1509;51.964;7.628;2023-02-28T18:10:13;5.10;99.90
2999;DHT22;1509;51.964;7.628;2023-02-28T18:12:40;5.00;99.90
2999;DHT22;1509;51.964;7.628;2023-02-28T18:15:06;5.00;99.90
2999;DHT22;1509;51.964;7.628;2023-02-28T18:17:31;5.00;99.90
2999;DHT22;1509;51.964;7.628;2023-02-28T18:19:57;5.20;99.90
2999;DHT22;1509;51.964;7.628;2023-02-28T18:22:24;5.00;99.90
2999;DHT22;1509;51.964;7.628;2023-02-28T18:24:49;4.90;99.90
2999;DHT22;1509;51.964;7.628;2023-02-28T18:27:15;4.90;99.90
2999;DHT22;1509;51.964;7.628;2023-02-28T18:29:40;4.80;99.90
2999;DHT22;1509;51.964;7.628;2023-02-28T18:32:06;4.80;99.90
2999;DHT22;1509;51.964;7.628;2023-02-28T18:34:32;4.90;99.90
2999;DHT22;1509;51.964;7.628;2023-02-28T18:36:57;4.80;99.90
2999;DHT22;1509;51.964;7.628;2023-02-28T18:39:23;4.80;99.90
2999;DHT22;1509;51.964;7.628;2023-02-28T18:41:49;4.80;99.90
2999;DHT22;1509;51.964;7.628;2023-02-28T18:44:14;4.70;99.90